sensor_id;sensor_type;location;lat;lon;timestamp;temperature;humidity
15184;DHT22;7693;49.266;7.104;2022-08-01T05:02:45;19.70;91.90
15184;DHT22;7693;49.266;7.104;2022-08-01T05:05:11;19.70;93.40
15184;DHT22;7693;49.266;7.104;2022-08-01T05:07:37;19.70;93.40
15184;DHT22;7693;49.266;7.104;2022-08-01T05:10:04;19.80;93.60
15184;DHT22;7693;49.266;7.104;2022-08-01T05:12:30;19.90;93.80
15184;DHT22;7693;49.266;7.104;2022-08-01T05:14:57;19.90;93.90
15184;DHT22;7693;49.266;7.104;2022-08-01T05:17:23;19.90;94.10
15184;DHT22;7693;49.266;7.104;2022-08-01T05:19:49;20.00;94.20
15184;DHT22;7693;49.266;7.104;2022-08-01T05:22:14;20.10;94.30
15184;DHT22;7693;49.266;7.104;2022-08-01T05:24:40;20.20;94.40
15184;DHT22;7693;49.266;7.104;2022-08-01T05:27:06;20.20;94.40
15184;DHT22;7693;49.266;7.104;2022-08-01T05:29:35;20.30;94.50
15184;DHT22;7693;49.266;7.104;2022-08-01T05:32:01;20.30;94.50
15184;DHT22;7693;49.266;7.104;2022-08-01T05:34:27;20.30;94.50
15184;DHT22;7693;49.266;7.104;2022-08-01T05:36:53;20.40;94.60
15184;DHT22;7693;49.266;7.104;2022-08-01T05:39:19;20.40;94.60
15184;DHT22;7693;49.266;7.104;2022-08-01T05:41:45;20.40;94.70
15184;DHT22;7693;49.266;7.104;2022-08-01T05:44:10;20.40;94.90
15184;DHT22;7693;49.266;7.104;2022-08-01T05:46:36;20.50;95.10
15184;DHT22;7693;49.266;7.104;2022-08-01T05:49:03;20.50;95.20
15184;DHT22;7693;49.266;7.104;2022-08-01T05:51:29;20.60;95.30
15184;DHT22;7693;49.266;7.104;2022-08-01T05:53:57;20.70;95.20
15184;DHT22;7693;49.266;7.104;2022-08-01T05:56:23;20.70;95.30
15184;DHT22;7693;49.266;7.104;2022-08-01T05:58:49;20.80;95.20
15184;DHT22;7693;49.266;7.104;2022-08-01T06:01:16;20.80;95.20
15184;DHT22;7693;49.266;7.104;2022-08-01T06:03:42;20.90;95.40
15184;DHT22;7693;49.266;7.104;2022-08-01T06:06:08;21.00;95.40
15184;DHT22;7693;49.266;7.104;2022-08-01T06:08:33;21.00;95.30
15184;DHT22;7693;49.266;7.104;2022-08-01T06:10:59;21.00;95.20
15184;DHT22;7693;49.266;7.104;2022-08-01T06:13:24;21.00;95.30
15184;DHT22;7693;49.266;7.104;2022-08-01T06:15:50;21.10;95.30
15184;DHT22;7693;49.266;7.104;2022-08-01T06:18:16;21.10;95.40
15184;DHT22;7693;49.266;7.104;2022-08-01T06:20:42;21.10;95.40
15184;DHT22;7693;49.266;7.104;2022-08-01T06:23:08;21.10;95.40
15184;DHT22;7693;49.266;7.104;2022-08-01T06:25:34;21.10;95.50
15184;DHT22;7693;49.266;7.104;2022-08-01T06:28:00;21.20;95.70
15184;DHT22;7693;49.266;7.104;2022-08-01T06:30:26;21.20;95.60
15184;DHT22;7693;49.266;7.104;2022-08-01T06:32:52;21.30;95.60
15184;DHT22;7693;49.266;7.104;2022-08-01T06:35:18;21.30;95.70
15184;DHT22;7693;49.266;7.104;2022-08-01T06:37:43;21.40;95.70
15184;DHT22;7693;49.266;7.104;2022-08-01T06:40:12;21.50;95.70
15184;DHT22;7693;49.266;7.104;2022-08-01T06:42:38;21.50;95.70
15184;DHT22;7693;49.266;7.104;2022-08-01T06:45:08;21.50;95.70
15184;DHT22;7693;49.266;7.104;2022-08-01T06:47:34;21.60;95.80
15184;DHT22;7693;49.266;7.104;2022-08-01T06:50:00;21.60;95.70
15184;DHT22;7693;49.266;7.104;2022-08-01T06:52:26;21.60;95.70
15184;DHT22;7693;49.266;7.104;2022-08-01T06:54:51;21.70;95.70
15184;DHT22;7693;49.266;7.104;2022-08-01T06:57:17;21.70;95.80
15184;DHT22;7693;49.266;7.104;2022-08-01T06:59:43;21.70;95.80
15184;DHT22;7693;49.266;7.104;2022-08-01T07:02:08;21.70;95.70
15184;DHT22;7693;49.266;7.104;2022-08-01T07:04:34;21.80;95.70
15184;DHT22;7693;49.266;7.104;2022-08-01T07:07:00;21.90;95.90
15184;DHT22;7693;49.266;7.104;2022-08-01T07:09:26;21.90;95.60
15184;DHT22;7693;49.266;7.104;2022-08-01T07:11:53;21.80;95.60
15184;DHT22;7693;49.266;7.104;2022-08-01T07:14:20;21.90;95.80
15184;DHT22;7693;49.266;7.104;2022-08-01T07:16:45;21.90;95.90
15184;DHT22;7693;49.266;7.104;2022-08-01T07:19:11;21.90;96.10
15184;DHT22;7693;49.266;7.104;2022-08-01T07:21:37;22.00;95.80
15184;DHT22;7693;49.266;7.104;2022-08-01T07:24:04;22.00;95.80
15184;DHT22;7693;49.266;7.104;2022-08-01T07:26:30;22.10;95.90
15184;DHT22;7693;49.266;7.104;2022-08-01T07:28:55;22.10;95.90
15184;DHT22;7693;49.266;7.104;2022-08-01T07:31:21;22.20;95.90
15184;DHT22;7693;49.266;7.104;2022-08-01T07:33:46;22.20;95.90
15184;DHT22;7693;49.266;7.104;2022-08-01T07:36:12;22.30;95.90
15184;DHT22;7693;49.266;7.104;2022-08-01T07:38:38;22.30;96.10
15184;DHT22;7693;49.266;7.104;2022-08-01T07:41:03;22.50;96.00
15184;DHT22;7693;49.266;7.104;2022-08-01T07:43:29;22.60;96.10
15184;DHT22;7693;49.266;7.104;2022-08-01T07:45:54;22.60;95.80
15184;DHT22;7693;49.266;7.104;2022-08-01T07:48:20;22.60;95.40
15184;DHT22;7693;49.266;7.104;2022-08-01T07:50:49;22.60;95.30
15184;DHT22;7693;49.266;7.104;2022-08-01T07:53:15;22.50;95.20
15184;DHT22;7693;49.266;7.104;2022-08-01T07:55:41;22.50;95.30
15184;DHT22;7693;49.266;7.104;2022-08-01T07:58:07;22.50;95.30
15184;DHT22;7693;49.266;7.104;2022-08-01T08:00:32;22.50;95.30
15184;DHT22;7693;49.266;7.104;2022-08-01T08:02:58;22.50;95.30
15184;DHT22;7693;49.266;7.104;2022-08-01T08:05:25;22.60;95.30
15184;DHT22;7693;49.266;7.104;2022-08-01T08:07:51;22.60;95.20
15184;DHT22;7693;49.266;7.104;2022-08-01T08:10:16;22.60;95.30
15184;DHT22;7693;49.266;7.104;2022-08-01T08:12:42;22.60;95.10
15184;DHT22;7693;49.266;7.104;2022-08-01T08:15:08;22.60;95.20
15184;DHT22;7693;49.266;7.104;2022-08-01T08:17:34;22.60;95.30
15184;DHT22;7693;49.266;7.104;2022-08-01T08:20:01;22.70;95.30
15184;DHT22;7693;49.266;7.104;2022-08-01T08:22:27;22.70;95.30
15184;DHT22;7693;49.266;7.104;2022-08-01T08:24:53;22.80;95.40
15184;DHT22;7693;49.266;7.104;2022-08-01T08:27:18;22.90;95.40
15184;DHT22;7693;49.266;7.104;2022-08-01T08:29:44;23.00;95.50
15184;DHT22;7693;49.266;7.104;2022-08-01T08:32:09;23.10;95.10
15184;DHT22;7693;49.266;7.104;2022-08-01T08:34:35;23.10;95.10
15184;DHT22;7693;49.266;7.104;2022-08-01T08:37:01;23.10;94.80
15184;DHT22;7693;49.266;7.104;2022-08-01T08:39:27;23.00;94.90
15184;DHT22;7693;49.266;7.104;2022-08-01T08:41:55;23.00;94.90
15184;DHT22;7693;49.266;7.104;2022-08-01T08:44:21;22.90;94.90
15184;DHT22;7693;49.266;7.104;2022-08-01T08:46:49;22.90;94.90
15184;DHT22;7693;49.266;7.104;2022-08-01T08:49:18;22.90;94.90
15184;DHT22;7693;49.266;7.104;2022-08-01T08:51:48;23.00;95.10
15184;DHT22;7693;49.266;7.104;2022-08-01T08:54:15;23.00;95.10
15184;DHT22;7693;49.266;7.104;2022-08-01T08:56:42;23.10;95.00
15184;DHT22;7693;49.266;7.104;2022-08-01T08:59:08;23.10;94.90
15184;DHT22;7693;49.266;7.104;2022-08-01T09:01:36;23.10;95.00
15184;DHT22;7693;49.266;7.104;2022-08-01T09:04:03;23.10;94.90
15184;DHT22;7693;49.266;7.104;2022-08-01T09:06:29;23.20;95.00
15184;DHT22;7693;49.266;7.104;2022-08-01T09:08:56;23.30;95.20
15184;DHT22;7693;49.266;7.104;2022-08-01T09:11:22;23.40;94.90
15184;DHT22;7693;49.266;7.104;2022-08-01T09:14:09;23.40;94.80
15184;DHT22;7693;49.266;7.104;2022-08-01T09:16:37;23.40;94.60
15184;DHT22;7693;49.266;7.104;2022-08-01T09:19:13;23.40;94.60
15184;DHT22;7693;49.266;7.104;2022-08-01T09:21:40;23.40;94.60
15184;DHT22;7693;49.266;7.104;2022-08-01T09:24:14;23.50;94.50
15184;DHT22;7693;49.266;7.104;2022-08-01T09:26:40;23.50;94.50
15184;DHT22;7693;49.266;7.104;2022-08-01T09:29:08;23.60;94.50
15184;DHT22;7693;49.266;7.104;2022-08-01T09:31:43;23.60;94.60
15184;DHT22;7693;49.266;7.104;2022-08-01T09:34:09;23.70;94.40
15184;DHT22;7693;49.266;7.104;2022-08-01T09:36:53;23.70;94.30
15184;DHT22;7693;49.266;7.104;2022-08-01T09:39:36;23.80;94.30
15184;DHT22;7693;49.266;7.104;2022-08-01T09:42:23;23.80;94.20
15184;DHT22;7693;49.266;7.104;2022-08-01T09:44:49;23.90;94.40
15184;DHT22;7693;49.266;7.104;2022-08-01T09:47:15;23.80;93.90
15184;DHT22;7693;49.266;7.104;2022-08-01T09:49:43;23.80;93.90
15184;DHT22;7693;49.266;7.104;2022-08-01T09:52:23;23.80;94.00
15184;DHT22;7693;49.266;7.104;2022-08-01T09:54:54;23.80;94.10
15184;DHT22;7693;49.266;7.104;2022-08-01T09:57:20;23.90;94.20
15184;DHT22;7693;49.266;7.104;2022-08-01T09:59:48;23.90;94.10
15184;DHT22;7693;49.266;7.104;2022-08-01T10:02:28;23.90;94.00
15184;DHT22;7693;49.266;7.104;2022-08-01T10:04:53;23.90;93.90
15184;DHT22;7693;49.266;7.104;2022-08-01T10:07:20;23.90;93.90
15184;DHT22;7693;49.266;7.104;2022-08-01T10:09:46;23.90;93.70
15184;DHT22;7693;49.266;7.104;2022-08-01T10:12:14;23.90;93.80
15184;DHT22;7693;49.266;7.104;2022-08-01T10:14:42;23.90;93.70
15184;DHT22;7693;49.266;7.104;2022-08-01T10:17:11;23.90;93.90
15184;DHT22;7693;49.266;7.104;2022-08-01T10:19:39;24.10;93.90
15184;DHT22;7693;49.266;7.104;2022-08-01T10:22:08;24.20;94.10
15184;DHT22;7693;49.266;7.104;2022-08-01T10:24:38;24.20;93.40
15184;DHT22;7693;49.266;7.104;2022-08-01T10:27:07;24.10;93.30
15184;DHT22;7693;49.266;7.104;2022-08-01T10:29:40;24.10;93.30
15184;DHT22;7693;49.266;7.104;2022-08-01T10:32:07;24.00;93.20
15184;DHT22;7693;49.266;7.104;2022-08-01T10:34:35;23.90;93.10
15184;DHT22;7693;49.266;7.104;2022-08-01T10:37:01;23.90;93.30
15184;DHT22;7693;49.266;7.104;2022-08-01T10:39:28;23.90;93.50
15184;DHT22;7693;49.266;7.104;2022-08-01T10:41:55;24.00;93.70
15184;DHT22;7693;49.266;7.104;2022-08-01T10:44:22;24.10;93.60
15184;DHT22;7693;49.266;7.104;2022-08-01T10:46:52;24.20;93.60
15184;DHT22;7693;49.266;7.104;2022-08-01T10:49:20;24.40;93.60
15184;DHT22;7693;49.266;7.104;2022-08-01T10:51:47;24.50;93.30
15184;DHT22;7693;49.266;7.104;2022-08-01T10:54:13;24.50;93.00
15184;DHT22;7693;49.266;7.104;2022-08-01T10:56:44;24.50;92.90
15184;DHT22;7693;49.266;7.104;2022-08-01T10:59:34;24.50;92.90
15184;DHT22;7693;49.266;7.104;2022-08-01T11:02:05;24.50;92.70
15184;DHT22;7693;49.266;7.104;2022-08-01T11:07:07;24.50;93.00
15184;DHT22;7693;49.266;7.104;2022-08-01T11:09:42;24.60;93.00
15184;DHT22;7693;49.266;7.104;2022-08-01T11:12:13;24.60;92.50
15184;DHT22;7693;49.266;7.104;2022-08-01T11:17:39;24.60;92.60
15184;DHT22;7693;49.266;7.104;2022-08-01T11:20:13;24.60;92.70
15184;DHT22;7693;49.266;7.104;2022-08-01T11:25:23;25.00;92.60
15184;DHT22;7693;49.266;7.104;2022-08-01T11:27:48;25.00;92.00
15184;DHT22;7693;49.266;7.104;2022-08-01T11:32:55;24.70;91.70
15184;DHT22;7693;49.266;7.104;2022-08-01T11:35:23;24.60;92.00
15184;DHT22;7693;49.266;7.104;2022-08-01T11:37:50;24.60;92.20
15184;DHT22;7693;49.266;7.104;2022-08-01T11:40:19;24.60;92.30
15184;DHT22;7693;49.266;7.104;2022-08-01T11:42:45;24.60;92.00
15184;DHT22;7693;49.266;7.104;2022-08-01T11:45:11;24.60;91.90
15184;DHT22;7693;49.266;7.104;2022-08-01T11:47:45;24.50;91.90
15184;DHT22;7693;49.266;7.104;2022-08-01T11:50:41;24.60;92.30
15184;DHT22;7693;49.266;7.104;2022-08-01T11:53:07;24.70;92.50
15184;DHT22;7693;49.266;7.104;2022-08-01T11:55:34;24.90;92.10
15184;DHT22;7693;49.266;7.104;2022-08-01T11:58:05;24.90;91.90
15184;DHT22;7693;49.266;7.104;2022-08-01T12:00:32;24.90;91.80
15184;DHT22;7693;49.266;7.104;2022-08-01T12:02:59;24.90;91.60
15184;DHT22;7693;49.266;7.104;2022-08-01T12:05:26;24.90;91.80
15184;DHT22;7693;49.266;7.104;2022-08-01T12:07:54;24.90;91.80
15184;DHT22;7693;49.266;7.104;2022-08-01T12:10:23;24.90;91.60
15184;DHT22;7693;49.266;7.104;2022-08-01T12:12:53;24.80;91.30
15184;DHT22;7693;49.266;7.104;2022-08-01T12:15:22;24.70;91.50
15184;DHT22;7693;49.266;7.104;2022-08-01T12:17:59;24.70;91.40
15184;DHT22;7693;49.266;7.104;2022-08-01T12:20:27;24.70;91.60
15184;DHT22;7693;49.266;7.104;2022-08-01T12:22:55;24.70;91.50
15184;DHT22;7693;49.266;7.104;2022-08-01T12:25:21;24.70;91.60
15184;DHT22;7693;49.266;7.104;2022-08-01T12:27:48;24.70;91.60
15184;DHT22;7693;49.266;7.104;2022-08-01T12:30:18;24.90;91.90
15184;DHT22;7693;49.266;7.104;2022-08-01T12:32:46;25.00;91.70
15184;DHT22;7693;49.266;7.104;2022-08-01T12:35:23;25.10;91.30
15184;DHT22;7693;49.266;7.104;2022-08-01T12:37:51;25.10;91.20
15184;DHT22;7693;49.266;7.104;2022-08-01T12:40:18;25.10;91.50
15184;DHT22;7693;49.266;7.104;2022-08-01T12:42:47;25.30;91.20
15184;DHT22;7693;49.266;7.104;2022-08-01T12:45:15;25.30;90.90
15184;DHT22;7693;49.266;7.104;2022-08-01T12:47:41;25.30;91.00
15184;DHT22;7693;49.266;7.104;2022-08-01T12:50:20;25.30;90.80
15184;DHT22;7693;49.266;7.104;2022-08-01T12:52:47;25.30;91.00
15184;DHT22;7693;49.266;7.104;2022-08-01T12:55:15;25.20;90.70
15184;DHT22;7693;49.266;7.104;2022-08-01T12:57:44;25.20;90.90
15184;DHT22;7693;49.266;7.104;2022-08-01T13:00:22;25.30;90.70
15184;DHT22;7693;49.266;7.104;2022-08-01T13:02:50;25.20;90.30
15184;DHT22;7693;49.266;7.104;2022-08-01T13:05:16;25.20;90.60
15184;DHT22;7693;49.266;7.104;2022-08-01T13:10:11;25.30;90.60
15184;DHT22;7693;49.266;7.104;2022-08-01T13:12:37;25.40;90.60
15184;DHT22;7693;49.266;7.104;2022-08-01T13:15:21;25.40;90.80
15184;DHT22;7693;49.266;7.104;2022-08-01T13:17:47;25.50;90.50
15184;DHT22;7693;49.266;7.104;2022-08-01T13:20:33;25.50;90.20
15184;DHT22;7693;49.266;7.104;2022-08-01T13:23:16;25.40;90.30
15184;DHT22;7693;49.266;7.104;2022-08-01T13:25:53;25.40;90.30
15184;DHT22;7693;49.266;7.104;2022-08-01T13:28:22;25.30;89.80
15184;DHT22;7693;49.266;7.104;2022-08-01T13:33:39;25.40;90.30
15184;DHT22;7693;49.266;7.104;2022-08-01T13:36:06;25.50;90.30
15184;DHT22;7693;49.266;7.104;2022-08-01T13:38:32;25.60;90.10
15184;DHT22;7693;49.266;7.104;2022-08-01T13:41:16;25.70;90.00
15184;DHT22;7693;49.266;7.104;2022-08-01T13:43:42;25.70;90.00
15184;DHT22;7693;49.266;7.104;2022-08-01T13:46:07;25.70;89.00
15184;DHT22;7693;49.266;7.104;2022-08-01T13:48:33;25.80;90.00
15184;DHT22;7693;49.266;7.104;2022-08-01T13:50:59;25.90;89.50
15184;DHT22;7693;49.266;7.104;2022-08-01T13:53:25;25.90;89.20
15184;DHT22;7693;49.266;7.104;2022-08-01T13:55:51;25.90;88.90
15184;DHT22;7693;49.266;7.104;2022-08-01T13:58:17;25.80;88.90
15184;DHT22;7693;49.266;7.104;2022-08-01T14:00:43;25.80;88.50
15184;DHT22;7693;49.266;7.104;2022-08-01T14:03:08;25.80;88.60
15184;DHT22;7693;49.266;7.104;2022-08-01T14:05:36;25.80;88.80
15184;DHT22;7693;49.266;7.104;2022-08-01T14:08:02;25.80;88.00
15184;DHT22;7693;49.266;7.104;2022-08-01T14:10:27;25.80;88.50
15184;DHT22;7693;49.266;7.104;2022-08-01T14:12:55;25.80;88.30
15184;DHT22;7693;49.266;7.104;2022-08-01T14:15:21;25.80;88.20
15184;DHT22;7693;49.266;7.104;2022-08-01T14:17:47;25.80;87.90
15184;DHT22;7693;49.266;7.104;2022-08-01T14:20:13;25.80;87.60
15184;DHT22;7693;49.266;7.104;2022-08-01T14:22:38;25.70;87.20
15184;DHT22;7693;49.266;7.104;2022-08-01T14:25:06;25.70;87.50
15184;DHT22;7693;49.266;7.104;2022-08-01T14:27:32;25.60;87.10
15184;DHT22;7693;49.266;7.104;2022-08-01T14:30:02;25.60;87.20
15184;DHT22;7693;49.266;7.104;2022-08-01T14:32:28;25.50;87.40
15184;DHT22;7693;49.266;7.104;2022-08-01T14:34:54;25.60;87.80
15184;DHT22;7693;49.266;7.104;2022-08-01T14:37:21;25.60;87.50
15184;DHT22;7693;49.266;7.104;2022-08-01T14:39:46;25.60;87.00
15184;DHT22;7693;49.266;7.104;2022-08-01T14:42:12;25.60;87.80
15184;DHT22;7693;49.266;7.104;2022-08-01T14:44:38;25.70;87.70
15184;DHT22;7693;49.266;7.104;2022-08-01T14:47:04;25.70;87.40
15184;DHT22;7693;49.266;7.104;2022-08-01T14:49:29;25.70;87.00
15184;DHT22;7693;49.266;7.104;2022-08-01T14:51:55;25.70;87.10
15184;DHT22;7693;49.266;7.104;2022-08-01T14:54:21;25.80;87.00
15184;DHT22;7693;49.266;7.104;2022-08-01T14:56:46;25.70;86.80
15184;DHT22;7693;49.266;7.104;2022-08-01T14:59:12;25.70;86.20
15184;DHT22;7693;49.266;7.104;2022-08-01T15:01:38;25.60;86.00
15184;DHT22;7693;49.266;7.104;2022-08-01T15:04:03;25.50;86.20
15184;DHT22;7693;49.266;7.104;2022-08-01T15:06:29;25.50;86.30
15184;DHT22;7693;49.266;7.104;2022-08-01T15:08:55;25.50;86.50
15184;DHT22;7693;49.266;7.104;2022-08-01T15:11:20;25.50;86.30
15184;DHT22;7693;49.266;7.104;2022-08-01T15:13:46;25.40;86.50
15184;DHT22;7693;49.266;7.104;2022-08-01T15:16:31;25.40;86.40
15184;DHT22;7693;49.266;7.104;2022-08-01T15:18:57;25.40;86.20
15184;DHT22;7693;49.266;7.104;2022-08-01T15:21:23;25.30;86.20
15184;DHT22;7693;49.266;7.104;2022-08-01T15:23:48;25.30;86.30
15184;DHT22;7693;49.266;7.104;2022-08-01T15:26:14;25.20;86.50
15184;DHT22;7693;49.266;7.104;2022-08-01T15:28:39;25.30;86.60
15184;DHT22;7693;49.266;7.104;2022-08-01T15:31:05;25.20;86.50
15184;DHT22;7693;49.266;7.104;2022-08-01T15:33:30;25.10;86.30
15184;DHT22;7693;49.266;7.104;2022-08-01T15:35:56;25.00;86.50
15184;DHT22;7693;49.266;7.104;2022-08-01T15:38:22;25.00;86.90
15184;DHT22;7693;49.266;7.104;2022-08-01T15:40:47;25.00;86.90
15184;DHT22;7693;49.266;7.104;2022-08-01T15:43:13;25.00;87.10
15184;DHT22;7693;49.266;7.104;2022-08-01T15:45:39;25.00;87.20
15184;DHT22;7693;49.266;7.104;2022-08-01T15:48:05;25.00;87.40
15184;DHT22;7693;49.266;7.104;2022-08-01T15:50:30;25.00;87.20
15184;DHT22;7693;49.266;7.104;2022-08-01T15:52:56;25.00;87.50
15184;DHT22;7693;49.266;7.104;2022-08-01T15:55:22;25.00;87.50
15184;DHT22;7693;49.266;7.104;2022-08-01T15:57:47;25.00;87.70
15184;DHT22;7693;49.266;7.104;2022-08-01T16:00:13;25.00;87.70
15184;DHT22;7693;49.266;7.104;2022-08-01T16:02:39;25.10;88.10
15184;DHT22;7693;49.266;7.104;2022-08-01T16:05:06;25.20;87.80
15184;DHT22;7693;49.266;7.104;2022-08-01T16:07:32;25.10;87.50
15184;DHT22;7693;49.266;7.104;2022-08-01T16:09:57;25.10;87.70
15184;DHT22;7693;49.266;7.104;2022-08-01T16:12:23;25.10;87.40
15184;DHT22;7693;49.266;7.104;2022-08-01T16:14:49;25.10;87.90
15184;DHT22;7693;49.266;7.104;2022-08-01T16:17:14;25.20;88.10
15184;DHT22;7693;49.266;7.104;2022-08-01T16:19:40;25.30;88.00
15184;DHT22;7693;49.266;7.104;2022-08-01T16:22:05;25.30;87.70
15184;DHT22;7693;49.266;7.104;2022-08-01T16:24:31;25.40;87.50
15184;DHT22;7693;49.266;7.104;2022-08-01T16:26:57;25.30;88.00
15184;DHT22;7693;49.266;7.104;2022-08-01T16:29:23;25.40;87.20
15184;DHT22;7693;49.266;7.104;2022-08-01T16:31:50;25.40;87.50
15184;DHT22;7693;49.266;7.104;2022-08-01T16:34:15;25.40;86.90
15184;DHT22;7693;49.266;7.104;2022-08-01T16:36:41;25.40;86.80
15184;DHT22;7693;49.266;7.104;2022-08-01T16:39:07;25.30;86.60
15184;DHT22;7693;49.266;7.104;2022-08-01T16:41:32;25.20;86.50
15184;DHT22;7693;49.266;7.104;2022-08-01T16:43:58;25.20;86.80
15184;DHT22;7693;49.266;7.104;2022-08-01T16:46:24;25.10;87.20
15184;DHT22;7693;49.266;7.104;2022-08-01T16:48:51;25.20;87.60
15184;DHT22;7693;49.266;7.104;2022-08-01T16:51:17;25.30;87.70
15184;DHT22;7693;49.266;7.104;2022-08-01T16:53:42;25.30;87.40
15184;DHT22;7693;49.266;7.104;2022-08-01T16:56:08;25.30;87.00
15184;DHT22;7693;49.266;7.104;2022-08-01T16:58:34;25.20;86.70
15184;DHT22;7693;49.266;7.104;2022-08-01T17:00:59;25.10;86.90
15184;DHT22;7693;49.266;7.104;2022-08-01T17:03:25;25.00;86.80
15184;DHT22;7693;49.266;7.104;2022-08-01T17:05:51;25.00;86.80
15184;DHT22;7693;49.266;7.104;2022-08-01T17:08:16;24.90;86.80
15184;DHT22;7693;49.266;7.104;2022-08-01T17:10:42;24.80;87.10
15184;DHT22;7693;49.266;7.104;2022-08-01T17:13:08;24.80;87.20
15184;DHT22;7693;49.266;7.104;2022-08-01T17:15:33;24.80;87.20
15184;DHT22;7693;49.266;7.104;2022-08-01T17:18:01;24.70;87.20
15184;DHT22;7693;49.266;7.104;2022-08-01T17:20:27;24.70;87.20
15184;DHT22;7693;49.266;7.104;2022-08-01T17:22:53;24.70;87.40
15184;DHT22;7693;49.266;7.104;2022-08-01T17:25:18;24.70;87.40
15184;DHT22;7693;49.266;7.104;2022-08-01T17:27:46;24.70;87.50
15184;DHT22;7693;49.266;7.104;2022-08-01T17:30:15;24.60;87.20
15184;DHT22;7693;49.266;7.104;2022-08-01T17:32:41;24.60;88.10
15184;DHT22;7693;49.266;7.104;2022-08-01T17:35:09;24.50;87.20
15184;DHT22;7693;49.266;7.104;2022-08-01T17:37:37;24.40;87.60
15184;DHT22;7693;49.266;7.104;2022-08-01T17:40:03;24.40;87.80
15184;DHT22;7693;49.266;7.104;2022-08-01T17:42:29;24.40;87.80
15184;DHT22;7693;49.266;7.104;2022-08-01T17:44:58;24.40;87.90
15184;DHT22;7693;49.266;7.104;2022-08-01T17:47:24;24.40;88.20
15184;DHT22;7693;49.266;7.104;2022-08-01T17:49:50;24.40;88.00
15184;DHT22;7693;49.266;7.104;2022-08-01T17:52:15;24.30;88.00
15184;DHT22;7693;49.266;7.104;2022-08-01T17:54:41;24.30;88.00
15184;DHT22;7693;49.266;7.104;2022-08-01T17:57:07;24.30;88.20
15184;DHT22;7693;49.266;7.104;2022-08-01T17:59:33;24.30;88.30
15184;DHT22;7693;49.266;7.104;2022-08-01T18:01:58;24.30;88.30
15184;DHT22;7693;49.266;7.104;2022-08-01T18:04:24;24.20;88.20
15184;DHT22;7693;49.266;7.104;2022-08-01T18:06:49;24.20;88.40
15184;DHT22;7693;49.266;7.104;2022-08-01T18:09:17;24.20;88.40
15184;DHT22;7693;49.266;7.104;2022-08-01T18:11:43;24.20;88.60
15184;DHT22;7693;49.266;7.104;2022-08-01T18:14:09;24.10;88.50
15184;DHT22;7693;49.266;7.104;2022-08-01T18:16:35;24.10;88.60
15184;DHT22;7693;49.266;7.104;2022-08-01T18:19:01;24.10;88.60
15184;DHT22;7693;49.266;7.104;2022-08-01T18:21:26;24.10;88.70
15184;DHT22;7693;49.266;7.104;2022-08-01T18:23:52;24.00;88.90
15184;DHT22;7693;49.266;7.104;2022-08-01T18:26:19;24.00;89.00
15184;DHT22;7693;49.266;7.104;2022-08-01T18:28:45;24.00;89.00
15184;DHT22;7693;49.266;7.104;2022-08-01T18:31:10;24.00;89.00
15184;DHT22;7693;49.266;7.104;2022-08-01T18:33:37;24.00;89.20
15184;DHT22;7693;49.266;7.104;2022-08-01T18:36:03;23.90;89.20
15184;DHT22;7693;49.266;7.104;2022-08-01T18:38:30;23.90;89.30
15184;DHT22;7693;49.266;7.104;2022-08-01T18:40:56;23.90;89.50
15184;DHT22;7693;49.266;7.104;2022-08-01T18:43:22;23.80;89.30
15184;DHT22;7693;49.266;7.104;2022-08-01T18:45:47;23.80;89.50
15184;DHT22;7693;49.266;7.104;2022-08-01T18:48:13;23.80;89.60
15184;DHT22;7693;49.266;7.104;2022-08-01T18:50:39;23.80;89.70
15184;DHT22;7693;49.266;7.104;2022-08-01T18:53:05;23.80;89.90
15184;DHT22;7693;49.266;7.104;2022-08-01T18:55:31;23.70;89.70
15184;DHT22;7693;49.266;7.104;2022-08-01T18:57:56;23.70;89.80
15184;DHT22;7693;49.266;7.104;2022-08-01T19:00:22;23.60;89.90
15184;DHT22;7693;49.266;7.104;2022-08-01T19:02:47;23.60;89.90
15184;DHT22;7693;49.266;7.104;2022-08-01T19:05:13;23.60;90.00
15184;DHT22;7693;49.266;7.104;2022-08-01T19:07:38;23.50;90.00
15184;DHT22;7693;49.266;7.104;2022-08-01T19:10:04;23.40;90.10
15184;DHT22;7693;49.266;7.104;2022-08-01T19:12:30;23.40;90.20
15184;DHT22;7693;49.266;7.104;2022-08-01T19:14:56;23.30;90.20
15184;DHT22;7693;49.266;7.104;2022-08-01T19:17:22;23.30;90.30
15184;DHT22;7693;49.266;7.104;2022-08-01T19:19:48;23.20;90.30
15184;DHT22;7693;49.266;7.104;2022-08-01T19:22:18;23.20;90.40
15184;DHT22;7693;49.266;7.104;2022-08-01T19:24:44;23.10;90.50
15184;DHT22;7693;49.266;7.104;2022-08-01T19:27:10;23.10;90.50
15184;DHT22;7693;49.266;7.104;2022-08-01T19:29:39;23.00;90.50
15184;DHT22;7693;49.266;7.104;2022-08-01T19:32:07;22.90;90.60
15184;DHT22;7693;49.266;7.104;2022-08-01T19:34:46;22.80;90.60
15184;DHT22;7693;49.266;7.104;2022-08-01T19:37:14;22.70;90.80
15184;DHT22;7693;49.266;7.104;2022-08-01T19:39:43;22.60;90.90
15184;DHT22;7693;49.266;7.104;2022-08-01T19:42:09;22.60;91.00
15184;DHT22;7693;49.266;7.104;2022-08-01T19:44:37;22.60;91.10
15184;DHT22;7693;49.266;7.104;2022-08-01T19:47:02;22.50;91.20
15184;DHT22;7693;49.266;7.104;2022-08-01T19:49:29;22.40;91.30
15184;DHT22;7693;49.266;7.104;2022-08-01T19:51:58;22.40;91.30
15184;DHT22;7693;49.266;7.104;2022-08-01T19:54:29;22.30;91.40
15184;DHT22;7693;49.266;7.104;2022-08-01T19:56:59;22.20;91.50
15184;DHT22;7693;49.266;7.104;2022-08-01T19:59:26;22.20;91.50
15184;DHT22;7693;49.266;7.104;2022-08-01T20:01:52;22.10;91.60
15184;DHT22;7693;49.266;7.104;2022-08-01T20:04:19;22.10;91.70
15184;DHT22;7693;49.266;7.104;2022-08-01T20:06:46;22.00;91.80
15184;DHT22;7693;49.266;7.104;2022-08-01T20:09:12;21.90;91.80
15184;DHT22;7693;49.266;7.104;2022-08-01T20:11:43;21.90;91.90
15184;DHT22;7693;49.266;7.104;2022-08-01T20:14:12;21.90;92.10
15184;DHT22;7693;49.266;7.104;2022-08-01T20:16:39;21.80;92.10
15184;DHT22;7693;49.266;7.104;2022-08-01T20:19:05;21.80;92.20
15184;DHT22;7693;49.266;7.104;2022-08-01T20:21:31;21.70;92.20
15184;DHT22;7693;49.266;7.104;2022-08-01T20:24:00;21.70;92.40
15184;DHT22;7693;49.266;7.104;2022-08-01T20:26:28;21.70;92.60
15184;DHT22;7693;49.266;7.104;2022-08-01T20:28:55;21.70;92.60
15184;DHT22;7693;49.266;7.104;2022-08-01T20:31:22;21.70;92.60
15184;DHT22;7693;49.266;7.104;2022-08-01T20:33:50;21.70;92.70
15184;DHT22;7693;49.266;7.104;2022-08-01T20:36:16;21.60;92.80
15184;DHT22;7693;49.266;7.104;2022-08-01T20:38:43;21.60;92.80
15184;DHT22;7693;49.266;7.104;2022-08-01T20:41:09;21.60;92.90
15184;DHT22;7693;49.266;7.104;2022-08-01T20:43:35;21.60;93.00
15184;DHT22;7693;49.266;7.104;2022-08-01T20:46:02;21.60;93.10
15184;DHT22;7693;49.266;7.104;2022-08-01T20:48:28;21.60;93.10
15184;DHT22;7693;49.266;7.104;2022-08-01T20:50:57;21.50;93.20
15184;DHT22;7693;49.266;7.104;2022-08-01T20:53:46;21.50;93.30
15184;DHT22;7693;49.266;7.104;2022-08-01T20:56:28;21.50;93.40
15184;DHT22;7693;49.266;7.104;2022-08-01T21:01:34;21.50;93.50
15184;DHT22;7693;49.266;7.104;2022-08-01T21:06:48;21.40;93.50
15184;DHT22;7693;49.266;7.104;2022-08-01T21:09:17;21.40;94.00